Time;durP1;ratioP1;P1;durP2;ratioP2;P2;SDS_P1;SDS_P2;PMS_P1;PMS_P2;Temp;Humidity;BMP_temperature;BMP_pressure;BME280_temperature;BME280_humidity;BME280_pressure;Samples;Min_cycle;Max_cycle;Signal;HPM_P1;HPM_P2
2022/03/07 00:01:18;;;;;;;5.63;2.80;;;;;;;-0.02;100.00;98159.66;5132896;28;20467;-62
2022/03/07 00:03:45;;;;;;;6.05;2.40;;;;;;;0.02;100.00;98167.09;5132711;28;20525;-62
2022/03/07 00:06:11;;;;;;;5.30;2.60;;;;;;;-0.02;100.00;98165.03;5132742;28;20062;-62
2022/03/07 00:08:38;;;;;;;6.72;3.45;;;;;;;-0.03;100.00;98171.53;5132871;28;20058;-62
2022/03/07 00:11:04;;;;;;;8.43;2.30;;;;;;;0.03;100.00;98176.75;5133166;28;20051;-62
2022/03/07 00:13:31;;;;;;;4.72;2.95;;;;;;;0.01;100.00;98166.31;5132210;28;20047;-62
2022/03/07 00:15:57;;;;;;;6.57;2.90;;;;;;;-0.02;100.00;98158.84;5132118;27;20442;-62
2022/03/07 00:18:23;;;;;;;6.88;2.65;;;;;;;-0.04;100.00;98169.16;5132627;28;20047;-62
2022/03/07 00:20:50;;;;;;;4.28;2.40;;;;;;;-0.02;100.00;98166.94;5132958;28;20070;-62
2022/03/07 00:23:16;;;;;;;7.18;2.70;;;;;;;-0.05;100.00;98176.44;5132733;28;20055;-62
2022/03/07 00:25:43;;;;;;;7.82;3.30;;;;;;;-0.04;100.00;98183.41;5132734;28;20051;-62
2022/03/07 00:28:09;;;;;;;4.65;2.58;;;;;;;-0.04;100.00;98180.72;5132647;28;20047;-62
2022/03/07 00:30:35;;;;;;;3.70;2.17;;;;;;;-0.03;100.00;98190.41;5132801;28;20043;-62
2022/03/07 00:33:02;;;;;;;4.47;2.30;;;;;;;-0.02;100.00;98199.28;5132643;28;20070;-62
2022/03/07 00:35:28;;;;;;;5.85;2.80;;;;;;;0.02;100.00;98199.44;5132162;28;20501;-62
2022/03/07 00:37:54;;;;;;;4.80;2.53;;;;;;;0.04;100.00;98206.09;5132690;28;20051;-62
2022/03/07 00:40:20;;;;;;;3.05;2.38;;;;;;;0.04;100.00;98208.78;5132254;28;20058;-62
2022/03/07 00:42:48;;;;;;;4.78;2.53;;;;;;;0.02;100.00;98208.31;5132251;28;20184;-62
2022/03/07 00:45:14;;;;;;;6.38;2.97;;;;;;;0.04;100.00;98205.31;5132174;28;20479;-62
2022/03/07 00:47:40;;;;;;;7.15;3.95;;;;;;;0.04;100.00;98219.56;5132472;28;20422;-62
2022/03/07 00:50:07;;;;;;;4.65;3.03;;;;;;;0.01;100.00;98228.28;5132033;28;20051;-62
2022/03/07 00:52:33;;;;;;;6.40;2.85;;;;;;;-0.01;100.00;98233.97;5132270;28;20047;-62
2022/03/07 00:55:00;;;;;;;9.80;3.85;;;;;;;0.03;100.00;98228.75;5132171;28;20438;-62
2022/03/07 00:57:26;;;;;;;8.00;3.00;;;;;;;0.07;100.00;98231.59;5131963;28;20051;-62
2022/03/07 00:59:53;;;;;;;3.75;2.40;;;;;;;0.02;100.00;98242.53;5132087;28;20051;-62
2022/03/07 01:02:20;;;;;;;5.43;2.90;;;;;;;-0.01;100.00;98254.75;5131832;28;20509;-62
2022/03/07 01:04:46;;;;;;;4.03;2.70;;;;;;;-0.09;100.00;98274.41;5132209;28;20069;-62
2022/03/07 01:07:12;;;;;;;4.72;2.85;;;;;;;-0.08;100.00;98303.72;5131742;28;20066;-62
2022/03/07 01:09:38;;;;;;;8.60;2.55;;;;;;;-0.10;100.00;98324.81;5132079;28;20043;-62
2022/03/07 01:12:05;;;;;;;5.97;2.63;;;;;;;-0.13;100.00;98336.22;5131333;28;20529;-62
2022/03/07 01:14:32;;;;;;;10.13;3.30;;;;;;;-0.09;100.00;98341.75;5132083;28;20129;-62
2022/03/07 01:16:59;;;;;;;5.43;2.80;;;;;;;-0.07;100.00;98342.22;5131734;28;20051;-62
2022/03/07 01:19:25;;;;;;;7.15;2.95;;;;;;;-0.08;100.00;98363.00;5131738;28;20101;-62
2022/03/07 01:21:52;;;;;;;6.90;3.13;;;;;;;-0.10;100.00;98364.41;5131670;28;20055;-62
2022/03/07 01:24:18;;;;;;;5.57;2.90;;;;;;;-0.08;100.00;98364.91;5131618;28;20097;-62
2022/03/07 01:26:45;;;;;;;5.63;2.45;;;;;;;-0.05;100.00;98375.84;5131284;27;20498;-62
2022/03/07 01:29:12;;;;;;;5.57;2.65;;;;;;;-0.02;100.00;98367.13;5130455;28;20436;-62
2022/03/07 01:31:38;;;;;;;5.38;2.80;;;;;;;-0.02;100.00;98388.69;5131545;28;20547;-62
2022/03/07 01:34:05;;;;;;;5.57;2.92;;;;;;;0.03;100.00;98397.72;5131651;28;20051;-62
2022/03/07 01:36:31;;;;;;;6.22;2.97;;;;;;;0.02;100.00;98407.72;5131630;28;20047;-62
2022/03/07 01:38:57;;;;;;;4.85;2.42;;;;;;;0.09;100.00;98412.63;5131534;28;20076;-62
2022/03/07 01:41:23;;;;;;;8.35;2.90;;;;;;;0.05;100.00;98392.81;5131427;28;20099;-62
2022/03/07 01:43:50;;;;;;;5.85;3.20;;;;;;;0.05;100.00;98390.13;5131346;28;20059;-62
2022/03/07 01:46:16;;;;;;;6.00;2.80;;;;;;;0.04;100.00;98400.13;5131436;28;20055;-62
2022/03/07 01:48:42;;;;;;;5.40;2.30;;;;;;;-0.01;100.00;98406.44;5131361;28;20050;-62
2022/03/07 01:51:13;;;;;;;6.25;2.83;;;;;;;0.01;100.00;98410.72;5131432;28;20537;-62
2022/03/07 01:53:39;;;;;;;8.50;2.47;;;;;;;-0.01;100.00;98441.47;5131259;28;20051;-62
2022/03/07 01:56:07;;;;;;;5.40;2.80;;;;;;;0.04;100.00;98466.69;5131128;28;20055;-62
2022/03/07 01:58:33;;;;;;;6.97;2.88;;;;;;;0.05;100.00;98462.88;5131301;28;20403;-62
2022/03/07 02:00:59;;;;;;;6.63;3.28;;;;;;;0.01;100.00;98470.03;5130923;28;20204;-62
2022/03/07 02:03:26;;;;;;;7.50;3.03;;;;;;;0.01;100.00;98486.97;5131385;28;20101;-62
2022/03/07 02:05:52;;;;;;;7.93;3.13;;;;;;;-0.02;100.00;98490.28;5130903;28;20047;-62
2022/03/07 02:08:20;;;;;;;5.15;2.80;;;;;;;-0.07;100.00;98528.13;5131207;28;20043;-62
2022/03/07 02:10:46;;;;;;;3.25;2.60;;;;;;;-0.11;100.00;98544.13;5130801;28;20112;-62
2022/03/07 02:13:13;;;;;;;5.47;2.97;;;;;;;-0.14;100.00;98560.13;5130754;28;20126;-62
2022/03/07 02:15:39;;;;;;;6.75;3.13;;;;;;;-0.14;100.00;98565.50;5130807;28;20519;-62
2022/03/07 02:18:05;;;;;;;8.63;3.83;;;;;;;-0.14;100.00;98592.44;5130954;28;20541;-62
2022/03/07 02:20:31;;;;;;;8.90;2.97;;;;;;;-0.12;100.00;98606.44;5130829;28;20047;-62
2022/03/07 02:22:59;;;;;;;7.70;3.58;;;;;;;-0.13;100.00;98627.19;5130907;28;20502;-62
2022/03/07 02:25:25;;;;;;;6.53;3.45;;;;;;;-0.10;100.00;98645.44;5130868;28;20054;-62
2022/03/07 02:27:52;;;;;;;7.25;3.00;;;;;;;-0.01;100.00;98653.56;5130951;28;20180;-62
2022/03/07 02:30:18;;;;;;;3.85;2.95;;;;;;;0.00;100.00;98665.94;5131340;28;20476;-62
2022/03/07 02:32:44;;;;;;;6.82;2.80;;;;;;;0.06;100.00;98674.69;5130987;28;20097;-62
2022/03/07 02:35:12;;;;;;;6.90;3.15;;;;;;;-0.01;100.00;98678.59;5131263;28;20059;-62
2022/03/07 02:37:38;;;;;;;7.45;3.63;;;;;;;-0.07;100.00;98679.03;5130889;28;20055;-62
2022/03/07 02:40:06;;;;;;;6.28;3.10;;;;;;;-0.17;100.00;98681.97;5130287;27;20054;-62
2022/03/07 02:42:33;;;;;;;10.90;3.47;;;;;;;-0.29;100.00;98709.47;5131232;28;20047;-62
2022/03/07 02:44:59;;;;;;;7.78;3.10;;;;;;;-0.31;100.00;98760.94;5131106;28;20050;-62
2022/03/07 02:47:26;;;;;;;5.55;3.45;;;;;;;-0.23;100.00;98794.47;5130606;28;20047;-62
2022/03/07 02:49:52;;;;;;;6.00;3.47;;;;;;;-0.26;100.00;98808.53;5130505;28;20047;-62
2022/03/07 02:52:19;;;;;;;8.43;3.28;;;;;;;-0.21;100.00;98840.75;5130474;28;20510;-62
2022/03/07 02:54:45;;;;;;;8.20;3.15;;;;;;;-0.21;100.00;98850.72;5130665;28;20433;-61
2022/03/07 02:57:12;;;;;;;9.07;3.58;;;;;;;-0.24;100.00;98857.50;5130417;28;20564;-61
2022/03/07 02:59:38;;;;;;;9.40;3.58;;;;;;;-0.25;100.00;98855.91;5130257;28;20100;-62
2022/03/07 03:02:04;;;;;;;7.80;3.40;;;;;;;-0.32;100.00;98869.78;5130493;28;20055;-62
2022/03/07 03:04:30;;;;;;;7.00;3.28;;;;;;;-0.35;100.00;98885.75;5130202;28;20043;-62
2022/03/07 03:06:57;;;;;;;5.97;2.95;;;;;;;-0.45;100.00;98902.91;5130453;28;20051;-62
2022/03/07 03:09:23;;;;;;;6.95;3.33;;;;;;;-0.43;100.00;98926.81;5130284;28;20051;-62
2022/03/07 03:11:49;;;;;;;7.07;3.83;;;;;;;-0.40;100.00;98947.78;5129923;28;20051;-62
2022/03/07 03:14:16;;;;;;;7.72;3.35;;;;;;;-0.34;100.00;98977.03;5130195;28;20475;-62
2022/03/07 03:16:42;;;;;;;7.78;3.45;;;;;;;-0.23;100.00;98991.13;5130268;28;20057;-62
2022/03/07 03:19:09;;;;;;;8.82;3.30;;;;;;;-0.20;100.00;98993.22;5130054;28;20051;-62
2022/03/07 03:21:35;;;;;;;8.82;3.50;;;;;;;-0.24;100.00;98989.50;5129917;28;20407;-62
2022/03/07 03:24:01;;;;;;;7.18;3.65;;;;;;;-0.16;100.00;98993.44;5129949;28;20059;-62
2022/03/07 03:26:27;;;;;;;6.10;3.10;;;;;;;-0.11;100.00;98982.53;5130053;28;20108;-62
2022/03/07 03:28:53;;;;;;;5.25;3.40;;;;;;;-0.15;100.00;98968.06;5130312;28;20104;-62
2022/03/07 03:31:20;;;;;;;6.57;3.63;;;;;;;-0.22;100.00;98965.78;5130008;28;20054;-62
2022/03/07 03:33:47;;;;;;;7.60;3.55;;;;;;;-0.31;100.00;98952.19;5130140;28;20510;-62
2022/03/07 03:36:13;;;;;;;11.57;3.47;;;;;;;-0.38;100.00;98969.84;5129940;28;20051;-62
2022/03/07 03:38:39;;;;;;;8.00;3.28;;;;;;;-0.56;100.00;98972.31;5129753;28;20054;-62
2022/03/07 03:41:05;;;;;;;9.00;3.22;;;;;;;-0.69;100.00;99002.69;5129909;28;20051;-62
2022/03/07 03:43:32;;;;;;;7.07;3.63;;;;;;;-0.79;100.00;99033.25;5129821;28;20051;-62
2022/03/07 03:45:58;;;;;;;9.40;4.05;;;;;;;-0.82;100.00;99060.75;5129663;28;20050;-62
2022/03/07 03:48:25;;;;;;;5.13;3.25;;;;;;;-0.85;100.00;99092.84;5129716;28;20047;-62
2022/03/07 03:50:52;;;;;;;10.10;4.30;;;;;;;-0.95;100.00;99110.72;5130267;27;20047;-62
2022/03/07 03:53:18;;;;;;;15.00;5.50;;;;;;;-1.00;100.00;99126.94;5133419;28;20051;-63
2022/03/07 03:55:44;;;;;;;6.35;3.45;;;;;;;-1.13;100.00;99143.81;5133158;28;20172;-62
2022/03/07 03:58:10;;;;;;;8.18;3.85;;;;;;;-1.15;100.00;99161.31;5133067;28;20527;-62
2022/03/07 04:00:37;;;;;;;8.55;3.78;;;;;;;-1.20;100.00;99178.28;5133480;28;20512;-62
2022/03/07 04:03:03;;;;;;;11.63;3.85;;;;;;;-1.24;100.00;99198.78;5133444;28;20047;-62
2022/03/07 04:05:30;;;;;;;7.97;3.80;;;;;;;-1.34;100.00;99206.97;5133456;28;20043;-62
2022/03/07 04:07:56;;;;;;;7.57;3.78;;;;;;;-1.38;100.00;99219.38;5133318;28;20433;-62
2022/03/07 04:10:22;;;;;;;6.85;3.60;;;;;;;-1.44;100.00;99218.63;5133248;28;20051;-62
2022/03/07 04:12:48;;;;;;;9.57;3.65;;;;;;;-1.55;100.00;99234.06;5132244;28;20505;-62
2022/03/07 04:15:15;;;;;;;6.57;3.83;;;;;;;-1.63;100.00;99247.31;5132733;28;20051;-62
2022/03/07 04:17:42;;;;;;;5.80;3.47;;;;;;;-1.63;100.00;99245.44;5132689;28;20118;-62
2022/03/07 04:20:09;;;;;;;6.35;3.25;;;;;;;-1.61;100.00;99248.63;5132583;28;20051;-62
2022/03/07 04:22:37;;;;;;;15.13;3.63;;;;;;;-1.59;100.00;99251.84;5132692;28;20057;-62
2022/03/07 04:25:04;;;;;;;10.25;4.95;;;;;;;-1.60;100.00;99254.81;5132639;28;20422;-62
2022/03/07 04:27:30;;;;;;;7.80;3.90;;;;;;;-1.57;100.00;99249.66;5132880;28;20084;-62
2022/03/07 04:29:57;;;;;;;8.02;3.80;;;;;;;-1.64;100.00;99241.13;5132773;28;20489;-62
2022/03/07 04:32:24;;;;;;;6.47;3.95;;;;;;;-1.72;100.00;99245.25;5132760;28;20051;-62
2022/03/07 04:34:51;;;;;;;9.65;3.80;;;;;;;-1.75;100.00;99247.69;5132330;28;20049;-62
2022/03/07 04:37:17;;;;;;;8.07;3.78;;;;;;;-1.80;100.00;99250.41;5132489;28;20203;-62
2022/03/07 04:39:44;;;;;;;7.00;3.40;;;;;;;-1.83;100.00;99254.47;5132498;28;20047;-62
2022/03/07 04:42:10;;;;;;;13.95;3.42;;;;;;;-1.79;100.00;99254.72;5132505;28;20480;-62
2022/03/07 04:44:36;;;;;;;10.15;4.22;;;;;;;-1.84;100.00;99252.84;5132323;28;20567;-62
2022/03/07 04:47:03;;;;;;;11.85;4.13;;;;;;;-1.86;100.00;99251.56;5132095;28;20051;-62
2022/03/07 04:49:29;;;;;;;7.07;3.50;;;;;;;-1.88;100.00;99249.13;5132615;28;20133;-62
2022/03/07 04:51:56;;;;;;;7.15;3.20;;;;;;;-1.91;100.00;99250.47;5132504;28;20074;-62
2022/03/07 04:54:22;;;;;;;9.23;3.70;;;;;;;-1.90;100.00;99251.28;5132347;28;20189;-62
2022/03/07 04:56:51;;;;;;;7.35;3.55;;;;;;;-1.85;100.00;99248.56;5132456;28;20055;-62
2022/03/07 04:59:18;;;;;;;9.45;3.65;;;;;;;-1.64;100.00;99248.41;5132322;28;20093;-62
2022/03/07 05:01:44;;;;;;;9.13;3.97;;;;;;;-1.44;100.00;99237.47;5132027;27;20051;-62
2022/03/07 05:04:10;;;;;;;7.85;4.07;;;;;;;-1.26;100.00;99239.44;5132179;28;20057;-62
2022/03/07 05:06:37;;;;;;;6.35;3.70;;;;;;;-1.07;100.00;99247.56;5132067;28;20050;-62
2022/03/07 05:09:04;;;;;;;10.38;3.60;;;;;;;-0.94;100.00;99243.38;5132052;28;20054;-62
2022/03/07 05:11:30;;;;;;;7.85;3.53;;;;;;;-0.87;100.00;99251.91;5131914;28;20055;-62
2022/03/07 05:13:57;;;;;;;9.55;3.70;;;;;;;-0.79;100.00;99253.19;5131383;28;20103;-62
2022/03/07 05:16:23;;;;;;;7.07;3.40;;;;;;;-0.74;100.00;99261.19;5131860;28;20058;-62
2022/03/07 05:18:49;;;;;;;7.70;3.30;;;;;;;-0.68;100.00;99256.56;5131958;28;20051;-62
2022/03/07 05:21:16;;;;;;;5.50;3.47;;;;;;;-0.61;100.00;99259.69;5132086;28;20043;-62
2022/03/07 05:23:42;;;;;;;9.70;4.28;;;;;;;-0.44;100.00;99254.63;5131732;28;20058;-62
2022/03/07 05:26:08;;;;;;;6.70;3.70;;;;;;;-0.35;100.00;99252.88;5131551;28;20047;-62
2022/03/07 05:28:35;;;;;;;9.25;4.35;;;;;;;-0.36;100.00;99243.22;5131623;28;20051;-62
2022/03/07 05:31:02;;;;;;;5.78;3.95;;;;;;;-0.32;100.00;99233.44;5131874;28;20461;-62
2022/03/07 05:33:28;;;;;;;13.20;4.20;;;;;;;-0.24;100.00;99234.66;5131582;28;20047;-62
2022/03/07 05:35:54;;;;;;;9.90;4.38;;;;;;;-0.19;100.00;99221.13;5131633;28;20051;-62
2022/03/07 05:38:21;;;;;;;10.07;5.03;;;;;;;-0.15;100.00;99208.69;5131980;28;20422;-62
2022/03/07 05:40:47;;;;;;;7.90;4.32;;;;;;;-0.08;100.00;99200.22;5131558;28;20565;-62
2022/03/07 05:43:13;;;;;;;6.22;3.47;;;;;;;-0.05;100.00;99192.34;5131171;28;20055;-62
2022/03/07 05:45:40;;;;;;;8.65;3.50;;;;;;;-0.04;100.00;99187.75;5131510;28;20047;-62
2022/03/07 05:48:06;;;;;;;7.13;3.70;;;;;;;-0.02;100.00;99178.28;5131666;28;20061;-62
2022/03/07 05:50:33;;;;;;;9.10;4.40;;;;;;;-0.04;100.00;99150.81;5131316;28;20100;-62
2022/03/07 05:52:59;;;;;;;12.88;3.90;;;;;;;-0.02;100.00;99154.03;5131581;28;20050;-62
2022/03/07 05:55:26;;;;;;;6.97;3.55;;;;;;;0.02;100.00;99142.66;5131411;28;20494;-62
2022/03/07 05:57:59;;;;;;;11.82;4.32;;;;;;;0.11;100.00;99133.59;5131359;28;20426;-62
2022/03/07 06:00:26;;;;;;;7.93;3.33;;;;;;;0.17;100.00;99126.25;5131322;28;20085;-62
2022/03/07 06:02:52;;;;;;;9.65;3.88;;;;;;;0.16;100.00;99116.53;5131143;28;20391;-62
2022/03/07 06:05:19;;;;;;;7.22;3.53;;;;;;;0.15;100.00;99109.53;5131240;28;20112;-62
2022/03/07 06:07:45;;;;;;;7.47;3.45;;;;;;;0.19;100.00;99105.94;5130952;28;20050;-62
2022/03/07 06:10:11;;;;;;;5.95;3.60;;;;;;;0.30;100.00;99103.88;5130713;28;20506;-62
2022/03/07 06:12:38;;;;;;;9.98;4.40;;;;;;;0.41;100.00;99096.41;5130472;28;20051;-62
2022/03/07 06:15:06;;;;;;;8.98;3.85;;;;;;;0.47;100.00;99090.59;5130287;27;20054;-62
2022/03/07 06:17:33;;;;;;;7.80;3.47;;;;;;;0.47;100.00;99074.41;5130944;28;20055;-62
2022/03/07 06:20:00;;;;;;;8.77;4.18;;;;;;;0.38;100.00;99046.53;5131082;28;20053;-62
2022/03/07 06:22:27;;;;;;;8.18;3.13;;;;;;;0.50;100.00;99051.44;5130975;28;20051;-62
2022/03/07 06:24:53;;;;;;;4.03;2.90;;;;;;;0.69;100.00;99051.31;5130672;28;20055;-62
2022/03/07 06:27:19;;;;;;;7.05;3.90;;;;;;;0.79;100.00;99028.72;5131045;28;20124;-62
2022/03/07 06:29:45;;;;;;;5.80;3.03;;;;;;;0.85;100.00;98995.13;5130794;28;20050;-62
2022/03/07 06:32:12;;;;;;;6.10;3.50;;;;;;;0.76;100.00;98953.75;5130859;28;20139;-62
2022/03/07 06:34:38;;;;;;;8.93;3.53;;;;;;;0.75;100.00;98941.38;5130617;28;20055;-62
2022/03/07 06:37:04;;;;;;;8.82;3.58;;;;;;;0.88;100.00;98938.63;5130574;28;20051;-62
2022/03/07 06:39:31;;;;;;;6.78;3.22;;;;;;;1.05;100.00;98929.06;5130705;28;20174;-62
2022/03/07 06:41:57;;;;;;;4.72;3.17;;;;;;;1.23;100.00;98903.75;5130775;28;20138;-62
2022/03/07 06:44:24;;;;;;;5.78;3.38;;;;;;;1.33;100.00;98857.59;5130804;28;20059;-62
2022/03/07 06:46:50;;;;;;;6.55;3.42;;;;;;;1.44;100.00;98814.88;5131066;28;20215;-63
2022/03/07 06:49:16;;;;;;;6.38;3.45;;;;;;;1.71;100.00;98778.72;5130722;28;20043;-62
2022/03/07 06:51:42;;;;;;;10.40;3.42;;;;;;;1.87;100.00;98722.31;5130567;28;20403;-63
2022/03/07 06:54:09;;;;;;;11.95;3.50;;;;;;;1.82;100.00;98619.75;5130450;28;20047;-62
2022/03/07 06:56:36;;;;;;;8.32;3.33;;;;;;;1.80;100.00;98563.31;5130556;28;20413;-62
2022/03/07 06:59:03;;;;;;;8.95;4.75;;;;;;;1.73;100.00;98524.38;5130532;28;20047;-63
2022/03/07 07:01:29;;;;;;;7.75;3.40;;;;;;;1.68;100.00;98535.34;5130447;28;20091;-63
2022/03/07 07:03:55;;;;;;;7.60;3.88;;;;;;;1.75;100.00;98543.75;5130317;28;20054;-63
2022/03/07 07:06:21;;;;;;;5.75;2.92;;;;;;;1.73;100.00;98533.25;5130044;28;20073;-63
2022/03/07 07:08:48;;;;;;;6.00;3.50;;;;;;;1.64;100.00;98511.69;5130442;28;20055;-63
2022/03/07 07:11:14;;;;;;;7.07;3.13;;;;;;;1.63;100.00;98514.69;5130166;28;20053;-62
2022/03/07 07:13:41;;;;;;;12.75;4.90;;;;;;;1.56;100.00;98509.78;5129962;28;20055;-63
2022/03/07 07:16:07;;;;;;;11.85;3.95;;;;;;;1.60;100.00;98528.84;5130132;28;20053;-63
2022/03/07 07:18:33;;;;;;;8.43;3.13;;;;;;;1.59;100.00;98535.38;5130211;28;20055;-62
2022/03/07 07:21:00;;;;;;;5.68;3.45;;;;;;;1.53;100.00;98540.13;5130009;28;20047;-62
2022/03/07 07:23:27;;;;;;;6.03;3.83;;;;;;;1.53;100.00;98533.94;5130143;28;20053;-62
2022/03/07 07:25:54;;;;;;;5.82;3.47;;;;;;;1.58;100.00;98544.59;5130655;27;20134;-63
2022/03/07 07:28:20;;;;;;;6.88;3.25;;;;;;;1.59;100.00;98525.34;5133627;28;20062;-63
2022/03/07 07:30:47;;;;;;;6.05;3.38;;;;;;;1.60;100.00;98548.56;5133555;28;20051;-63
2022/03/07 07:33:14;;;;;;;8.80;3.85;;;;;;;1.64;100.00;98557.63;5133413;28;20482;-63
2022/03/07 07:35:40;;;;;;;7.60;3.85;;;;;;;1.76;100.00;98538.03;5133268;28;20051;-63
2022/03/07 07:38:07;;;;;;;5.00;3.22;;;;;;;1.83;100.00;98515.91;5133755;28;20074;-63
2022/03/07 07:40:34;;;;;;;5.53;3.35;;;;;;;1.98;100.00;98491.06;5133407;28;20493;-63
2022/03/07 07:43:00;;;;;;;6.72;3.70;;;;;;;2.15;100.00;98459.66;5133674;28;20138;-64
2022/03/07 07:45:27;;;;;;;5.82;3.22;;;;;;;2.41;100.00;98421.66;5133439;28;20051;-64
2022/03/07 07:47:54;;;;;;;5.93;3.38;;;;;;;2.56;100.00;98332.53;5133506;28;20057;-64
2022/03/07 07:50:21;;;;;;;7.15;3.17;;;;;;;3.03;100.00;98285.41;5133420;28;20100;-64
2022/03/07 07:52:47;;;;;;;4.95;3.00;;;;;;;3.26;100.00;98218.84;5133248;28;20498;-63
2022/03/07 07:55:13;;;;;;;4.63;3.20;;;;;;;3.30;100.00;98160.19;5133260;28;20055;-64
2022/03/07 07:57:40;;;;;;;6.70;3.50;;;;;;;3.29;100.00;98136.91;5133260;28;20058;-64
2022/03/07 08:00:08;;;;;;;7.90;3.47;;;;;;;2.97;100.00;98148.69;5133266;28;20074;-64
2022/03/07 08:02:34;;;;;;;7.85;3.42;;;;;;;2.83;100.00;98201.25;5133069;28;20047;-64
2022/03/07 08:05:01;;;;;;;10.27;3.70;;;;;;;2.80;100.00;98266.09;5132963;28;20048;-64
2022/03/07 08:07:27;;;;;;;9.50;3.50;;;;;;;2.95;100.00;98324.22;5132856;28;20103;-64
2022/03/07 08:09:57;;;;;;;5.53;2.95;;;;;;;3.21;100.00;98340.19;5133038;28;20406;-64
2022/03/07 08:12:23;;;;;;;4.55;2.90;;;;;;;3.17;100.00;98313.00;5132528;28;20138;-64
2022/03/07 08:14:50;;;;;;;6.60;4.13;;;;;;;3.19;100.00;98343.22;5133015;28;20051;-64
2022/03/07 08:17:16;;;;;;;4.78;3.03;;;;;;;3.45;100.00;98374.66;5132916;28;20516;-64
2022/03/07 08:19:42;;;;;;;7.85;3.45;;;;;;;3.12;100.00;98305.06;5132700;28;20047;-64
2022/03/07 08:22:09;;;;;;;4.30;3.58;;;;;;;2.73;100.00;98318.09;5132921;28;20047;-64
2022/03/07 08:24:35;;;;;;;6.68;3.63;;;;;;;2.60;100.00;98394.94;5132845;28;20043;-64
2022/03/07 08:27:02;;;;;;;6.10;3.25;;;;;;;2.64;100.00;98471.63;5132692;28;20424;-64
2022/03/07 08:29:28;;;;;;;10.30;3.50;;;;;;;2.63;100.00;98502.50;5132655;28;20054;-64
2022/03/07 08:31:54;;;;;;;6.75;3.28;;;;;;;2.73;100.00;98539.22;5132661;28;20425;-64
2022/03/07 08:34:20;;;;;;;8.93;3.60;;;;;;;2.78;100.00;98556.06;5132454;28;20502;-64
2022/03/07 08:36:47;;;;;;;4.38;3.00;;;;;;;2.69;100.00;98519.34;5132020;27;20055;-64
2022/03/07 08:39:14;;;;;;;4.55;2.88;;;;;;;2.63;100.00;98491.66;5132684;28;20143;-64
2022/03/07 08:41:40;;;;;;;3.03;2.63;;;;;;;2.64;100.00;98495.97;5132464;28;20055;-64
2022/03/07 08:44:06;;;;;;;6.78;3.20;;;;;;;2.64;100.00;98509.50;5132827;28;20043;-64
2022/03/07 08:46:33;;;;;;;4.80;2.85;;;;;;;2.57;100.00;98491.09;5132592;28;20046;-64
2022/03/07 08:48:59;;;;;;;5.15;3.05;;;;;;;2.54;100.00;98491.75;5132730;28;20514;-64
2022/03/07 08:51:25;;;;;;;4.05;2.90;;;;;;;2.51;100.00;98500.50;5132494;28;20055;-64
2022/03/07 08:53:51;;;;;;;4.63;2.92;;;;;;;2.52;100.00;98520.22;5132337;28;20050;-64
2022/03/07 08:56:18;;;;;;;4.05;2.88;;;;;;;2.67;100.00;98545.94;5132269;28;20108;-64
2022/03/07 08:58:44;;;;;;;4.30;3.00;;;;;;;2.95;100.00;98532.69;5132210;28;20047;-64
2022/03/07 09:01:11;;;;;;;5.25;3.05;;;;;;;3.05;100.00;98522.25;5132041;28;20059;-64
2022/03/07 09:03:37;;;;;;;5.90;3.45;;;;;;;2.99;100.00;98530.91;5132429;28;20070;-64
2022/03/07 09:06:03;;;;;;;7.10;3.28;;;;;;;2.82;100.00;98518.28;5131958;28;20498;-64
2022/03/07 09:08:31;;;;;;;4.65;3.20;;;;;;;2.67;100.00;98532.41;5132016;28;20552;-64
2022/03/07 09:10:57;;;;;;;6.25;3.20;;;;;;;2.61;100.00;98604.88;5132293;28;20127;-64
2022/03/07 09:13:24;;;;;;;4.97;3.28;;;;;;;2.58;100.00;98663.13;5131468;28;20421;-64
2022/03/07 09:15:50;;;;;;;5.07;3.38;;;;;;;2.70;100.00;98686.84;5132020;28;20116;-64
2022/03/07 09:18:16;;;;;;;3.75;3.05;;;;;;;2.61;100.00;98617.63;5132070;28;20054;-64
2022/03/07 09:20:42;;;;;;;6.22;3.08;;;;;;;2.47;100.00;98613.22;5132053;28;20142;-65
2022/03/07 09:23:09;;;;;;;8.52;3.35;;;;;;;2.38;100.00;98623.28;5131921;28;20047;-64
2022/03/07 09:25:35;;;;;;;5.50;3.22;;;;;;;2.50;100.00;98672.09;5131814;28;20138;-64
2022/03/07 09:28:03;;;;;;;7.15;3.47;;;;;;;2.60;100.00;98668.25;5131467;28;20054;-64
2022/03/07 09:30:30;;;;;;;4.18;2.90;;;;;;;2.69;100.00;98658.16;5131432;28;20047;-64
2022/03/07 09:32:57;;;;;;;4.22;3.33;;;;;;;2.78;100.00;98639.19;5131719;28;20062;-64
2022/03/07 09:35:24;;;;;;;10.00;3.33;;;;;;;2.88;100.00;98619.06;5131511;28;20074;-65
2022/03/07 09:37:50;;;;;;;5.78;3.15;;;;;;;3.10;100.00;98629.63;5131288;28;20165;-64
2022/03/07 09:40:16;;;;;;;3.88;2.67;;;;;;;3.29;100.00;98631.88;5131498;28;20047;-62
2022/03/07 09:42:43;;;;;;;7.82;2.88;;;;;;;3.26;100.00;98621.69;5131405;28;20058;-62
2022/03/07 09:45:10;;;;;;;6.75;3.25;;;;;;;3.03;100.00;98615.78;5131144;28;20096;-63
2022/03/07 09:47:40;;;;;;;6.43;3.75;;;;;;;3.03;100.00;98695.13;5131240;28;20058;-63
2022/03/07 09:50:08;;;;;;;3.70;2.97;;;;;;;2.89;100.00;98747.91;5130136;27;20107;-62
2022/03/07 09:52:35;;;;;;;6.68;4.18;;;;;;;2.82;100.00;98813.38;5131174;28;20047;-63
2022/03/07 09:55:02;;;;;;;4.70;3.00;;;;;;;2.78;100.00;98870.06;5131013;28;20054;-63
2022/03/07 09:57:29;;;;;;;3.53;3.22;;;;;;;2.79;100.00;98933.91;5130959;28;20054;-63
2022/03/07 09:59:56;;;;;;;3.58;3.22;;;;;;;2.77;100.00;98975.97;5131488;28;20050;-63
2022/03/07 10:02:25;;;;;;;7.72;3.65;;;;;;;2.70;100.00;98984.56;5114506;28;20073;-63
2022/03/07 10:04:52;;;;;;;3.50;2.88;;;;;;;2.70;100.00;99008.13;5131317;28;20058;-63
2022/03/07 10:07:18;;;;;;;4.75;3.00;;;;;;;2.65;100.00;99011.00;5131132;28;20055;-63
2022/03/07 10:09:46;;;;;;;4.30;3.05;;;;;;;2.43;100.00;98998.34;5131178;28;20482;-63
2022/03/07 10:12:12;;;;;;;5.15;3.30;;;;;;;2.37;100.00;99024.78;5131018;28;20047;-63
2022/03/07 10:14:42;;;;;;;5.28;2.55;;;;;;;2.43;100.00;99047.84;5130627;28;20053;-62
2022/03/07 10:17:19;;;;;;;5.20;3.55;;;;;;;2.60;100.00;99057.97;5130935;28;20055;-62
2022/03/07 10:19:46;;;;;;;6.97;3.92;;;;;;;2.68;100.00;99059.88;5130962;28;20054;-63
2022/03/07 10:22:19;;;;;;;8.25;3.75;;;;;;;2.63;100.00;99051.09;5130777;28;20053;-63
2022/03/07 10:24:46;;;;;;;5.00;2.95;;;;;;;2.61;100.00;99042.50;5130724;28;20134;-62
2022/03/07 10:27:24;;;;;;;3.83;3.03;;;;;;;2.55;100.00;99063.50;5130969;28;20047;-62
2022/03/07 10:29:50;;;;;;;3.60;3.15;;;;;;;2.62;100.00;99095.50;5130824;28;20072;-62
2022/03/07 10:32:17;;;;;;;3.55;2.55;;;;;;;2.59;100.00;99099.63;5130884;28;20051;-62
2022/03/07 10:34:43;;;;;;;4.90;3.40;;;;;;;2.68;100.00;99119.41;5130648;28;20058;-62
2022/03/07 10:37:11;;;;;;;4.90;2.90;;;;;;;2.73;100.00;99137.41;5130882;28;20055;-62
2022/03/07 10:39:46;;;;;;;3.22;2.80;;;;;;;2.70;100.00;99140.75;5130656;28;20086;-62
2022/03/07 10:42:15;;;;;;;5.32;3.05;;;;;;;2.70;100.00;99148.88;5130850;28;20054;-62
2022/03/07 10:44:41;;;;;;;4.78;3.20;;;;;;;2.64;100.00;99159.06;5130435;28;20047;-63
2022/03/07 10:47:09;;;;;;;5.00;3.63;;;;;;;2.56;100.00;99165.22;5130536;28;20051;-63
2022/03/07 10:49:45;;;;;;;6.53;3.47;;;;;;;2.54;100.00;99181.78;5130409;28;20047;-62
2022/03/07 10:52:12;;;;;;;4.78;3.58;;;;;;;2.56;100.00;99195.78;5130888;28;20206;-62
2022/03/07 10:54:39;;;;;;;4.07;3.42;;;;;;;2.62;100.00;99201.06;5130814;28;20512;-63
2022/03/07 10:57:08;;;;;;;5.38;3.88;;;;;;;2.64;100.00;99202.38;5130562;28;20085;-62
2022/03/07 10:59:36;;;;;;;5.50;3.30;;;;;;;2.54;100.00;99199.94;5130939;27;20047;-62
2022/03/07 11:02:06;;;;;;;6.28;3.30;;;;;;;2.46;100.00;99200.66;5133928;28;20130;-62
2022/03/07 11:04:33;;;;;;;6.68;3.90;;;;;;;2.61;100.00;99202.19;5134341;28;20506;-62
2022/03/07 11:06:59;;;;;;;5.93;4.10;;;;;;;2.73;100.00;99207.81;5133932;28;20061;-62
2022/03/07 11:09:27;;;;;;;5.47;3.67;;;;;;;2.80;100.00;99210.88;5134103;28;20129;-62
2022/03/07 11:11:54;;;;;;;3.60;3.08;;;;;;;2.70;100.00;99197.59;5133869;28;20047;-62
2022/03/07 11:14:22;;;;;;;7.40;3.67;;;;;;;2.51;100.00;99187.03;5133361;28;20047;-62
2022/03/07 11:16:50;;;;;;;5.40;3.25;;;;;;;2.52;100.00;99194.00;5133692;28;20055;-62
2022/03/07 11:19:18;;;;;;;4.75;3.60;;;;;;;2.57;100.00;99191.97;5133901;28;20444;-62
2022/03/07 11:21:46;;;;;;;8.35;3.53;;;;;;;2.55;100.00;99182.56;5133919;28;20050;-62
2022/03/07 11:24:13;;;;;;;12.75;5.25;;;;;;;2.56;100.00;99174.13;5133790;28;20054;-62
2022/03/07 11:26:42;;;;;;;5.50;3.35;;;;;;;2.59;100.00;99162.69;5133945;28;20047;-62